Weather observations for the past three days for
George M Bryan Airport, Starkville
Imperial (Metric)
Date Time (cdt) Wind (mph) Vis. (mi.) Weather Sky Cond. Temperature (ºF) Relative Humidity Wind Chill (°F) Heat Index (°F) Pressure Precipitation (in)
Air Dwpt 6 hour altimeter (in) sea level (mb) 1 hr 3 hr 6 hr
Max. Min.
04 23:35 Calm 10.00 Fair CLR 59 59 100% 29.9 0.0
04 23:15 Calm 10.00 Fair CLR 59 59 100% 29.89 0.0
04 22:55 Calm 10.00 Fair CLR 59 59 100% 29.89 0.0
04 22:35 Calm 10.00 Fair CLR 60.8 59 94% 29.89 0.0
04 22:15 Calm 10.00 Fair CLR 60.8 59 94% 29.89 0.0
04 21:55 Calm 10.00 Fair CLR 60.8 59 94% 29.89 0.0
04 21:35 Calm 10.00 Fair CLR 62.6 59 88% 29.88 0.0
04 21:15 Calm 10.00 Fair CLR 62.6 59 88% 29.88 0.0
04 20:55 Calm 10.00 Fair CLR 64.4 57.2 78% 29.87 0.0
04 20:35 Calm 10.00 Fair CLR 66.2 55.4 68% 29.87 0.0
04 20:15 Calm 10.00 Fair CLR 66.2 55.4 68% 29.86 0.0
04 19:55 Calm 10.00 Fair CLR 68 53.6 60% 29.86 0.0
04 19:35 S 5 10.00 Fair CLR 71.6 53.6 53% 29.86 0.0
04 19:15 S 3 10.00 Fair CLR 73.4 53.6 50% 29.86 0.0
04 18:55 S 3 10.00 Fair CLR 75.2 51.8 44% 78 29.86 0.0
04 18:35 S 7 G 13 10.00 Fair CLR 75.2 51.8 44% 78 29.86 0.0
04 18:15 S 6 10.00 Fair CLR 77 53.6 44% 78 29.87 0.0
04 17:55 S 7 G 16 10.00 Fair CLR 77 51.8 42% 78 29.87 0.0
04 17:35 Vrbl 6 10.00 Fair CLR 77 51.8 42% 78 29.87 0.0
04 17:15 SW 8 G 15 10.00 Fair CLR 78.8 50 37% 79 29.88 0.0
04 16:55 Vrbl 7 G 18 10.00 Fair CLR 78.8 51.8 39% 79 29.88 0.0
04 16:35 S 13 10.00 Fair CLR 78.8 51.8 39% 79 29.88 0.0
04 16:15 S 9 G 16 10.00 Fair CLR 78.8 51.8 39% 79 29.89 0.0
04 15:55 Vrbl 6 G 13 10.00 Fair CLR 78.8 50 37% 79 29.9 0.0
04 15:35 S 9 G 16 10.00 A Few Clouds FEW070 78.8 51.8 39% 79 29.91 0.0
04 15:15 S 6 G 14 10.00 A Few Clouds FEW070 77 50 39% 78 29.92 0.0
04 14:55 S 12 10.00 Fair CLR 78.8 51.8 39% 79 29.92 0.0
04 14:35 W 8 G 18 10.00 A Few Clouds FEW070 78.8 51.8 39% 79 29.93 0.0
04 14:15 Vrbl 6 G 18 10.00 A Few Clouds FEW070 78.8 51.8 39% 79 29.94 0.0
04 13:55 SW 8 G 15 10.00 A Few Clouds FEW070 77 50 39% 78 29.95 0.0
04 13:35 SW 8 10.00 Fair CLR 78.8 51.8 39% 79 29.95 0.0
04 13:15 S 7 G 20 10.00 Fair CLR 78.8 51.8 39% 79 29.95 0.0
04 12:55 SW 9 10.00 Fair CLR 77 51.8 42% 78 29.96 0.0
04 12:35 S 9 10.00 Fair CLR 77 51.8 42% 78 29.97 0.0
04 12:15 S 8 10.00 Fair CLR 77 53.6 44% 78 29.98 0.0
04 11:55 Vrbl 5 10.00 Fair CLR 75.2 53.6 47% 78 29.98 0.0
04 11:35 S 7 G 14 10.00 Fair CLR 75.2 55.4 50% 78 29.99 0.0
04 11:15 Vrbl 7 G 13 10.00 Fair CLR 75.2 53.6 47% 78 30 0.0
04 10:55 SW 7 G 17 10.00 Fair CLR 73.4 51.8 47% 30.01 0.0
04 10:35 W 8 10.00 Fair CLR 73.4 53.6 50% 30.01 0.0
04 10:15 SW 10 G 17 10.00 Fair CLR 71.6 51.8 50% 30.01 0.0
04 09:55 W 8 G 15 10.00 Fair CLR 71.6 53.6 53% 30.01 0.0
04 09:35 Vrbl 5 10.00 Fair CLR 69.8 57.2 64% 30.01 0.0
04 09:15 Vrbl 5 10.00 Fair CLR 68 55.4 64% 30.01 0.0
04 08:55 SW 5 10.00 Fair CLR 64.4 55.4 73% 30.01 0.0
04 08:35 Vrbl 6 10.00 Fair CLR 62.6 55.4 77% 30.01 0.0
04 08:15 Calm 10.00 Fair CLR 60.8 57.2 88% 30.01 0.0
04 07:55 Calm 10.00 Fair CLR 59 59 100% 30.02 0.0
04 07:35 S 3 10.00 Fair CLR 55.4 55.4 100% 30.01 0.0
04 07:15 Calm 10.00 Fair CLR 51.8 51.8 100% 30.01 0.0
04 06:55 S 3 10.00 Fair CLR 48.2 48.2 100% 30.01 0.0
04 06:35 Calm 10.00 Fair CLR 48.2 48.2 100% 30 0.0
04 06:15 Calm 10.00 Fair CLR 48.2 48.2 100% 30 0.0
04 05:55 Calm 10.00 Fair CLR 48.2 48.2 100% 29.99 0.0
04 05:35 Calm 10.00 Fair CLR 48.2 48.2 100% 29.99 0.0
04 05:15 Calm 10.00 Fair CLR 46.4 46.4 100% 29.99 0.0
04 04:55 Calm 10.00 Fair CLR 48.2 48.2 100% 30 0.0
04 04:35 Calm 10.00 Fair CLR 48.2 48.2 100% 30 0.0
04 04:15 Calm 10.00 Fair CLR 48.2 48.2 100% 30 0.0
04 03:55 S 5 10.00 Fair CLR 48.2 48.2 100% 47 29.99 0.0
04 03:35 S 5 10.00 Fair CLR 48.2 48.2 100% 47 30 0.0
04 03:15 Calm 10.00 Fair CLR 48.2 48.2 100% 30 0.0
04 02:55 Calm 10.00 Fair CLR 46.4 46.4 100% 30 0.0
04 02:35 Calm 10.00 Fair CLR 50 50 100% 30 0.0
04 02:15 Calm 10.00 Fair CLR 50 50 100% 30.01 0.0
04 01:55 Calm 10.00 Fair CLR 48.2 48.2 100% 30.02 0.0
04 01:35 Calm 10.00 Fair CLR 50 50 100% 30.02 0.0
04 01:15 Calm 10.00 Fair CLR 50 50 100% 30.03 0.0
04 00:55 Calm 10.00 Fair CLR 50 50 100% 30.04 0.0
04 00:35 Calm 10.00 Fair CLR 50 50 100% 30.04 0.0
04 00:15 Calm 10.00 Fair CLR 50 50 100% 30.04 0.0
03 23:55 Calm 10.00 Fair CLR 50 50 100% 30.04 0.0
03 23:35 Calm 10.00 Fair CLR 51.8 51.8 100% 30.05 0.0
03 22:55 Calm 10.00 Fair CLR 51.8 51.8 100% 30.05 0.0
03 22:35 Calm 10.00 Fair CLR 53.6 53.6 100% 30.05 0.0
03 22:15 Calm 10.00 Fair CLR 53.6 53.6 100% 30.06 0.0
03 21:55 Calm 10.00 Fair CLR 53.6 53.6 100% 30.05 0.0
03 21:35 Calm 10.00 Fair CLR 55.4 55.4 100% 30.05 0.0
03 21:15 Calm 10.00 Fair CLR 57.2 57.2 100% 30.05 0.0
03 20:55 Calm 10.00 Fair CLR 57.2 55.4 94% 30.04 0.0
03 20:35 Calm 10.00 Fair CLR 59 53.6 82% 30.03 0.0
03 20:15 Calm 10.00 Fair CLR 60.8 51.8 72% 30.03 0.0
03 19:55 Calm 10.00 Fair CLR 62.6 53.6 73% 30.02 0.0
03 19:35 Calm 10.00 Fair CLR 64.4 51.8 64% 30.02 0.0
03 19:15 Calm 10.00 Fair CLR 66.2 46.4 49% 30.01 0.0
03 18:55 Calm 10.00 Fair CLR 69.8 46.4 43% 30.02 0.0
03 18:35 Calm 10.00 Fair CLR 73.4 41 31% 30.02 0.0
03 18:15 NW 5 10.00 Fair CLR 73.4 41 31% 30.02 0.0
03 17:55 W 5 10.00 Fair CLR 73.4 41 31% 30.03 0.0
03 17:35 Calm 10.00 Fair CLR 73.4 41 31% 30.03 0.0
03 17:15 Vrbl 7 10.00 Fair CLR 75.2 42.8 31% 77 30.03 0.0
03 16:55 Vrbl 6 10.00 Fair CLR 75.2 42.8 31% 77 30.03 0.0
03 16:35 Vrbl 7 10.00 Fair CLR 73.4 41 31% 30.04 0.0
03 16:15 Calm 10.00 Fair CLR 73.4 41 31% 30.04 0.0
03 15:55 Calm 10.00 Fair CLR 73.4 41 31% 30.05 0.0
03 15:35 S 3 10.00 Fair CLR 73.4 42.8 33% 30.07 0.0
03 15:15 Vrbl 3 10.00 Fair CLR 73.4 42.8 33% 30.08 0.0
03 14:55 NW 8 10.00 Fair CLR 73.4 42.8 33% 30.09 0.0
03 13:55 Vrbl 6 10.00 Fair CLR 71.6 42.8 36% 30.13 0.0
03 13:35 W 9 10.00 Fair CLR 69.8 42.8 38% 30.14 0.0
03 13:15 W 7 G 16 10.00 Fair CLR 69.8 42.8 38% 30.14 0.0
03 12:55 Vrbl 5 10.00 Fair CLR 69.8 44.6 40% 30.15 0.0
03 12:35 Vrbl 7 10.00 Fair CLR 69.8 44.6 40% 30.16 0.0
03 12:15 W 7 10.00 Fair CLR 68 41 38% 30.17 0.0
03 11:55 Calm 10.00 Fair CLR 68 42.8 40% 30.18 0.0
03 11:35 Calm 10.00 Fair CLR 66.2 42.8 43% 30.18 0.0
03 11:15 Calm 10.00 Fair CLR 64.4 41 43% 30.19 0.0
03 10:55 S 3 10.00 Fair CLR 64.4 42.8 46% 30.2 0.0
03 10:35 Calm 10.00 Fair CLR 64.4 41 43% 30.2 0.0
03 10:15 Vrbl 6 10.00 Fair CLR 62.6 41 45% 30.2 0.0
03 09:55 E 7 10.00 Fair CLR 62.6 42.8 49% 30.2 0.0
03 09:35 Vrbl 3 10.00 Fair CLR 60.8 42.8 52% 30.2 0.0
03 09:15 SE 5 10.00 Fair CLR 59 44.6 59% 30.2 0.0
03 08:55 SE 5 10.00 Fair CLR 57.2 48.2 72% 30.19 0.0
03 08:35 SE 3 10.00 Fair CLR 57.2 50 77% 30.19 0.0
03 08:15 Calm 10.00 Fair CLR 55.4 51.8 88% 30.18 0.0
03 07:55 Calm 10.00 Fair CLR 53.6 53.6 100% 30.18 0.0
03 07:35 Calm 10.00 Fair CLR 50 50 100% 30.17 0.0
03 07:15 Calm 10.00 Fair CLR 46.4 46.4 100% 30.18 0.0
03 06:55 Calm 10.00 Fair CLR 44.6 44.6 100% 30.17 0.0
03 06:35 Calm 10.00 Fair CLR 42.8 42.8 100% 30.16 0.0
03 06:15 Calm 6.00 Fog/Mist CLR 42.8 42.8 100% 30.16 0.0
03 05:55 Calm 7.00 Fair CLR 42.8 42.8 100% 30.15 0.0
03 05:35 Calm 9.00 Fair CLR 42.8 42.8 100% 30.14 0.0
03 04:35 Calm 9.00 Fair CLR 44.6 44.6 100% 30.13 0.0
03 04:15 Calm 10.00 Fair CLR 44.6 44.6 100% 30.13 0.0
03 03:55 Calm 10.00 Fair CLR 46.4 46.4 100% 30.13 0.0
03 03:35 Calm 10.00 Fair CLR 46.4 46.4 100% 30.12 0.0
03 03:15 Calm 10.00 Fair CLR 46.4 46.4 100% 30.12 0.0
03 02:55 Calm 10.00 Fair CLR 48.2 48.2 100% 30.11 0.0
03 02:35 Calm 10.00 Fair CLR 48.2 48.2 100% 30.11 0.0
03 02:15 Calm 10.00 Fair CLR 50 50 100% 30.11 0.0
03 01:55 Calm 10.00 Fair CLR 50 50 100% 30.11 0.0
03 01:35 Calm 10.00 Fair CLR 50 50 100% 30.1 0.0
03 01:15 Vrbl 3 10.00 Fair CLR 51.8 50 94% 30.1 0.0
03 00:55 Vrbl 5 10.00 Fair CLR 51.8 48.2 88% 30.1 0.0
03 00:35 Calm 10.00 Fair CLR 48.2 48.2 100% 30.09 0.0
03 00:15 Calm 10.00 Fair CLR 50 50 100% 30.09 0.0
02 23:55 Calm 10.00 Fair CLR 50 50 100% 30.08 0.0
02 23:35 Calm 10.00 Fair CLR 50 50 100% 30.08 0.0
02 23:15 Calm 10.00 Fair CLR 50 50 100% 30.07 0.0
02 22:55 Calm 10.00 Fair CLR 50 50 100% 30.07 0.0
02 22:35 Calm 10.00 Fair CLR 51.8 51.8 100% 30.07 0.0
02 22:15 Calm 10.00 Fair CLR 51.8 51.8 100% 30.07 0.0
02 21:55 Calm 10.00 Fair CLR 51.8 51.8 100% 30.06 0.0
02 21:35 Calm 10.00 Fair CLR 53.6 51.8 94% 30.06 0.0
02 21:15 Calm 10.00 Fair CLR 53.6 53.6 100% 30.06 0.0
02 20:55 Calm 10.00 Fair CLR 55.4 53.6 94% 30.05 0.0
02 20:35 Calm 10.00 Fair CLR 57.2 50 77% 30.04 0.0
02 20:15 Calm 10.00 Fair CLR 57.2 48.2 72% 30.04 0.0
02 19:55 Calm 10.00 Fair CLR 60.8 46.4 59% 30.03 0.0
02 19:35 Calm 10.00 Fair CLR 60.8 44.6 55% 30.02 0.0
02 19:15 Calm 10.00 Fair CLR 64.4 44.6 49% 30.01 0.0
02 18:55 NW 5 9.00 Fair CLR 66.2 39.2 37% 30.01 0.0
02 18:35 Calm 10.00 Fair CLR 68 37.4 33% 30 0.0
02 18:15 Vrbl 5 G 13 10.00 Fair CLR 68 39.2 35% 30 0.0
02 17:55 Vrbl 6 10.00 Fair CLR 69.8 39.2 33% 30 0.0
02 17:35 Vrbl 5 G 12 10.00 A Few Clouds FEW085 69.8 39.2 33% 30 0.0
02 17:15 Vrbl 6 G 12 10.00 Partly Cloudy SCT085 69.8 39.2 33% 30.01 0.0
02 16:55 N 6 10.00 Mostly Cloudy BKN085 69.8 39.2 33% 30 0.0
02 16:35 Vrbl 6 G 14 10.00 A Few Clouds FEW090 69.8 39.2 33% 30 0.0
02 16:15 Vrbl 5 G 13 10.00 Partly Cloudy SCT085 68 37.4 33% 30.01 0.0
02 15:55 NW 9 10.00 A Few Clouds FEW080 FEW090 68 37.4 33% 30.01 0.0
02 15:35 Vrbl 7 G 16 10.00 A Few Clouds FEW080 68 37.4 33% 30.02 0.0
02 15:15 Vrbl 6 G 16 10.00 Fair CLR 71.6 39.2 31% 30.02 0.0
02 14:55 Vrbl 7 G 16 10.00 Fair CLR 69.8 37.4 31% 30.02 0.0
02 14:35 Vrbl 6 G 20 10.00 Fair CLR 69.8 37.4 31% 30.02 0.0
02 14:15 NW 13 10.00 A Few Clouds FEW080 69.8 37.4 31% 30.03 0.0
02 13:55 N 9 G 21 10.00 Fair CLR 69.8 37.4 31% 30.03 0.0
02 13:35 N 9 G 15 10.00 Fair CLR 68 37.4 33% 30.03 0.0
02 12:55 N 13 G 20 10.00 Fair CLR 68 39.2 35% 30.04 0.0
02 12:35 N 10 G 22 10.00 Fair CLR 68 37.4 33% 30.05 0.0
02 12:15 Vrbl 8 G 17 10.00 Fair CLR 66.2 37.4 35% 30.06 0.0
02 11:55 Vrbl 6 G 17 10.00 Fair CLR 66.2 39.2 37% 30.06 0.0
02 11:35 Vrbl 6 G 18 10.00 Fair CLR 66.2 41 40% 30.06 0.0
02 11:15 N 15 10.00 Fair CLR 64.4 39.2 40% 30.07 0.0
02 10:55 N 10 10.00 Fair CLR 64.4 39.2 40% 30.06 0.0
02 10:35 N 10 G 17 10.00 Fair CLR 62.6 37.4 39% 30.07 0.0
02 10:15 N 10 10.00 Fair CLR 62.6 39.2 42% 30.07 0.0
02 09:55 NE 10 G 17 10.00 Fair CLR 60.8 41 48% 30.06 0.0
02 09:35 N 9 10.00 Fair CLR 60.8 42.8 52% 30.05 0.0
02 08:55 NE 7 10.00 Fair CLR 57.2 46.4 67% 30.04 0.0
02 08:35 Vrbl 5 10.00 Fair CLR 55.4 48.2 77% 30.03 0.0
02 08:15 Calm 10.00 Fair CLR 55.4 48.2 77% 30.03 0.0
02 07:55 Vrbl 5 10.00 Fair CLR 53.6 46.4 77% 30.02 0.0
02 07:35 N 5 10.00 Fair CLR 53.6 46.4 77% 30.01 0.0
02 07:15 Vrbl 3 10.00 Fair CLR 53.6 48.2 82% 30 0.0
02 06:55 Calm 10.00 Fair CLR 51.8 46.4 82% 30 0.0
02 06:35 Vrbl 5 10.00 Fair CLR 51.8 46.4 82% 29.99 0.0
02 06:15 Vrbl 3 10.00 Fair CLR 51.8 46.4 82% 29.98 0.0
02 05:35 Calm 10.00 Overcast OVC055 51.8 46.4 82% 29.97 0.0
02 05:15 Calm 10.00 Overcast SCT050 OVC055 53.6 44.6 72% 29.97 0.0
02 04:55 Calm 10.00 Overcast FEW048 OVC055 55.4 42.8 63% 29.96 0.0
02 04:35 Vrbl 3 10.00 Overcast OVC050 55.4 42.8 63% 29.96 0.0
02 04:15 N 5 G 12 10.00 Overcast OVC050 55.4 42.8 63% 29.96 0.0
02 03:55 N 7 10.00 Overcast OVC050 55.4 44.6 67% 29.96 0.0
02 03:35 Vrbl 6 10.00 Overcast FEW045 BKN050 OVC085 55.4 46.4 72% 29.96 0.0
02 03:15 Vrbl 6 10.00 Overcast SCT048 BKN090 OVC110 55.4 46.4 72% 29.96 0.0
02 02:55 Calm 10.00 Overcast BKN070 OVC110 55.4 48.2 77% 29.97 0.0
02 02:35 Vrbl 3 10.00 Overcast BKN075 OVC090 57.2 50 77% 29.96 0.0
02 02:15 Calm 10.00 Overcast FEW075 SCT090 OVC120 57.2 51.8 82% 29.96 0.0
02 01:55 Vrbl 5 10.00 Overcast BKN075 BKN085 OVC110 57.2 51.8 82% 29.97 0.0
02 01:35 N 6 10.00 Overcast FEW044 BKN075 OVC095 57.2 55.4 94% 29.97 0.0
02 01:15 Vrbl 5 10.00 Overcast BKN075 OVC100 57.2 57.2 100% 29.98 0.0
02 00:55 Calm 10.00 Overcast OVC075 57.2 57.2 100% 29.99 0.0
02 00:35 NW 5 10.00 Overcast SCT075 OVC095 57.2 57.2 100% 30 0.0
02 00:15 NW 3 10.00 Overcast OVC095 57.2 57.2 100% 30 0.0
01 23:55 Vrbl 3 10.00 Overcast SCT075 OVC100 57.2 57.2 100% 29.97 0.0
Date Time (cdt) Wind (mph) Vis. (mi.) Weather Sky Cond. Air Dwpt Max. Min. Relative Humidity Wind Chill (°F) Heat Index (°F) altimeter (in) sea level (mb) 1 hr 3 hr 6 hr
6 hour
Temperature (ºF) Pressure Precipitation (in)